Time;durP1;ratioP1;P1;durP2;ratioP2;P2;SDS_P1;SDS_P2;PMS_P1;PMS_P2;Temp;Humidity;BMP_temperature;BMP_pressure;BME280_temperature;BME280_humidity;BME280_pressure;Samples;Min_cycle;Max_cycle;Signal;HPM_P1;HPM_P2
2023/03/01 00:01:09;;;;;;;3.13;2.60;;;;;;;6.89;100.00;94946.78;4990941;28;20187;-54
2023/03/01 00:03:35;;;;;;;3.80;2.63;;;;;;;6.99;100.00;94954.59;4991449;28;20192;-54
2023/03/01 00:06:01;;;;;;;4.23;3.07;;;;;;;6.88;100.00;94944.38;4990931;28;20669;-54
2023/03/01 00:08:27;;;;;;;5.07;2.77;;;;;;;6.93;100.00;94937.31;4990815;28;20187;-53
2023/03/01 00:11:17;;;;;;;4.33;3.30;;;;;;;6.86;100.00;94931.84;4991063;28;20200;-55
2023/03/01 00:13:44;;;;;;;3.07;2.27;;;;;;;6.77;100.00;94925.66;4990835;28;20211;-53
2023/03/01 00:16:16;;;;;;;2.80;2.40;;;;;;;6.79;100.00;94931.41;4990697;28;20726;-58
2023/03/01 00:18:41;;;;;;;2.90;2.30;;;;;;;6.78;100.00;94929.81;4990474;28;20218;-57
2023/03/01 00:21:07;;;;;;;2.90;2.13;;;;;;;6.84;100.00;94926.06;4990852;28;20199;-54
2023/03/01 00:23:35;;;;;;;3.17;2.07;;;;;;;6.76;100.00;94919.00;4990718;28;20606;-55
2023/03/01 00:26:00;;;;;;;3.63;2.53;;;;;;;6.76;100.00;94908.91;4990787;28;20192;-57
2023/03/01 00:28:26;;;;;;;3.73;2.00;;;;;;;6.70;100.00;94901.72;4990682;28;20249;-58
2023/03/01 00:30:51;;;;;;;2.67;2.00;;;;;;;6.87;100.00;94917.50;4990602;28;20199;-56
2023/03/01 00:33:17;;;;;;;3.37;2.23;;;;;;;6.86;100.00;94915.84;4990744;28;20192;-55
2023/03/01 00:35:43;;;;;;;3.27;1.97;;;;;;;6.86;100.00;94911.63;4990669;28;20302;-55
2023/03/01 00:38:08;;;;;;;2.77;1.93;;;;;;;6.91;100.00;94918.91;4990614;28;20232;-56
2023/03/01 00:40:35;;;;;;;3.13;2.00;;;;;;;6.98;100.00;94920.91;4990527;28;20222;-53
2023/03/01 00:43:01;;;;;;;2.27;1.80;;;;;;;6.85;100.00;94904.16;4990713;28;20192;-54
2023/03/01 00:45:27;;;;;;;4.90;1.87;;;;;;;6.85;100.00;94904.94;4990781;28;20302;-56
2023/03/01 00:47:53;;;;;;;1.83;1.70;;;;;;;6.91;100.00;94914.63;4990451;28;20652;-59
2023/03/01 00:50:18;;;;;;;2.60;2.00;;;;;;;6.97;100.00;94908.38;4990761;28;20253;-55
2023/03/01 00:52:44;;;;;;;2.40;1.70;;;;;;;6.96;100.00;94916.88;4990396;28;20199;-56
2023/03/01 00:55:11;;;;;;;1.90;1.80;;;;;;;6.81;100.00;94908.56;4989202;28;20648;-57
2023/03/01 00:57:37;;;;;;;2.00;1.80;;;;;;;6.84;100.00;94897.47;4990285;28;20191;-53
2023/03/01 01:00:09;;;;;;;2.57;2.00;;;;;;;6.81;100.00;94882.53;4989551;28;20618;-56
2023/03/01 01:02:35;;;;;;;4.67;1.60;;;;;;;6.88;100.00;94901.41;4990459;28;20237;-57
2023/03/01 01:05:00;;;;;;;2.53;1.80;;;;;;;6.77;100.00;94897.06;4990272;28;20618;-57
2023/03/01 01:07:26;;;;;;;2.83;2.13;;;;;;;6.72;100.00;94899.09;4990389;28;20195;-53
2023/03/01 01:09:51;;;;;;;1.87;1.60;;;;;;;6.77;100.00;94887.75;4990735;28;20214;-54
2023/03/01 01:12:17;;;;;;;1.70;1.40;;;;;;;6.79;100.00;94902.81;4990318;28;20183;-55
2023/03/01 01:14:42;;;;;;;2.57;1.80;;;;;;;6.69;100.00;94904.31;4990188;28;20298;-54
2023/03/01 01:17:07;;;;;;;2.70;1.70;;;;;;;6.73;100.00;94898.16;4990178;28;20192;-53
2023/03/01 01:19:33;;;;;;;1.60;1.50;;;;;;;6.68;100.00;94885.88;4988801;28;20311;-55
2023/03/01 01:21:58;;;;;;;1.70;1.60;;;;;;;6.75;100.00;94899.69;4990141;28;20668;-55
2023/03/01 01:24:24;;;;;;;2.70;1.50;;;;;;;6.61;100.00;94902.31;4990216;28;20307;-57
2023/03/01 01:26:49;;;;;;;1.83;1.40;;;;;;;6.78;100.00;94912.13;4990010;28;20188;-55
2023/03/01 01:29:15;;;;;;;1.47;1.37;;;;;;;6.81;100.00;94906.06;4990078;28;20288;-55
2023/03/01 01:31:43;;;;;;;1.47;1.37;;;;;;;6.80;100.00;94927.19;4990009;28;20599;-54
2023/03/01 01:34:14;;;;;;;1.53;1.43;;;;;;;6.77;100.00;94919.78;4990050;28;20796;-54
2023/03/01 01:36:40;;;;;;;1.50;1.40;;;;;;;6.62;100.00;94914.03;4989732;28;20302;-58
2023/03/01 01:39:06;;;;;;;3.53;1.30;;;;;;;6.64;100.00;94913.94;4990013;28;20220;-53
2023/03/01 01:41:32;;;;;;;1.20;1.10;;;;;;;6.47;100.00;94902.41;4989909;28;20193;-53
2023/03/01 01:44:14;;;;;;;1.53;1.30;;;;;;;6.49;100.00;94913.22;4989753;28;20216;-54
2023/03/01 01:46:45;;;;;;;1.50;1.10;;;;;;;6.64;100.00;94921.53;4989752;28;20176;-52
2023/03/01 01:49:35;;;;;;;1.30;1.20;;;;;;;6.57;100.00;94916.03;4989901;28;20223;-55
2023/03/01 01:52:07;;;;;;;1.33;1.23;;;;;;;6.65;100.00;94923.13;4989795;28;20584;-54
2023/03/01 01:54:41;;;;;;;1.40;1.30;;;;;;;6.49;100.00;94917.44;4989861;28;20246;-53
2023/03/01 01:57:30;;;;;;;1.27;1.17;;;;;;;6.57;100.00;94910.19;4989739;28;20226;-56
2023/03/01 02:00:00;;;;;;;1.70;1.60;;;;;;;6.68;100.00;94913.66;4989492;28;20227;-54
2023/03/01 02:02:26;;;;;;;1.33;1.23;;;;;;;6.67;100.00;94914.53;4989798;28;20230;-53
2023/03/01 02:05:03;;;;;;;1.10;1.10;;;;;;;6.70;100.00;94932.03;4989746;28;20223;-53
2023/03/01 02:07:30;;;;;;;1.47;1.37;;;;;;;6.68;100.00;94933.03;4989538;28;20257;-53
2023/03/01 02:09:55;;;;;;;1.20;1.10;;;;;;;6.58;100.00;94922.72;4989379;28;20220;-56
2023/03/01 02:12:24;;;;;;;1.00;1.00;;;;;;;6.69;100.00;94915.25;4988106;28;20561;-52
2023/03/01 02:14:49;;;;;;;1.23;1.13;;;;;;;6.57;100.00;94900.91;4989449;28;20253;-53
2023/03/01 02:17:17;;;;;;;1.00;1.00;;;;;;;6.74;100.00;94908.19;4989528;28;20188;-52
2023/03/01 02:20:06;;;;;;;1.40;1.30;;;;;;;6.79;100.00;94931.41;4989602;28;20215;-58
2023/03/01 02:22:34;;;;;;;1.60;1.50;;;;;;;6.62;100.00;94913.22;4989352;28;20195;-57
2023/03/01 02:25:09;;;;;;;1.43;1.33;;;;;;;6.72;100.00;94917.59;4989509;28;20212;-53
2023/03/01 02:28:07;;;;;;;1.60;1.50;;;;;;;6.75;100.00;94927.47;4989208;28;20194;-54
2023/03/01 02:30:33;;;;;;;1.63;1.17;;;;;;;6.70;100.00;94911.00;4988867;28;20228;-55
2023/03/01 02:33:04;;;;;;;0.80;0.80;;;;;;;6.65;100.00;94916.34;4989226;28;20246;-54
2023/03/01 02:35:38;;;;;;;1.40;1.30;;;;;;;6.72;100.00;94921.81;4988938;28;20215;-57
2023/03/01 02:38:07;;;;;;;2.30;1.30;;;;;;;6.72;100.00;94922.66;4988024;28;20244;-53
2023/03/01 02:40:35;;;;;;;1.40;1.30;;;;;;;6.65;100.00;94923.94;4987970;28;20218;-54
2023/03/01 02:43:04;;;;;;;1.67;1.53;;;;;;;6.64;100.00;94919.81;4989104;28;20227;-58
2023/03/01 02:45:29;;;;;;;4.20;1.67;;;;;;;6.66;100.00;94910.41;4988917;28;20722;-54
2023/03/01 02:47:56;;;;;;;2.00;1.50;;;;;;;6.62;100.00;94890.50;4989142;28;20191;-53
2023/03/01 02:50:27;;;;;;;2.10;1.90;;;;;;;6.58;100.00;94892.44;4989083;28;20215;-52
2023/03/01 02:52:55;;;;;;;2.10;1.23;;;;;;;6.58;100.00;94900.00;4988933;28;20557;-57
2023/03/01 02:55:21;;;;;;;1.97;1.43;;;;;;;6.49;100.00;94872.81;4988743;28;20238;-57
2023/03/01 02:57:50;;;;;;;1.80;1.70;;;;;;;6.28;100.00;94848.94;4988820;28;20271;-55
2023/03/01 03:00:30;;;;;;;1.73;1.57;;;;;;;6.50;100.00;94889.59;4989126;28;20229;-56
2023/03/01 03:02:58;;;;;;;2.13;2.00;;;;;;;6.49;100.00;94899.78;4987492;28;20211;-55
2023/03/01 03:05:29;;;;;;;2.20;2.00;;;;;;;6.30;100.00;94884.22;4989191;28;20631;-59
2023/03/01 03:07:55;;;;;;;3.07;1.90;;;;;;;6.40;100.00;94868.34;4987424;28;20199;-57
2023/03/01 03:10:26;;;;;;;1.93;1.70;;;;;;;6.47;100.00;94879.69;4988993;28;20432;-52
2023/03/01 03:12:58;;;;;;;2.57;1.80;;;;;;;6.50;100.00;94886.25;4988744;28;20195;-55
2023/03/01 03:15:24;;;;;;;2.13;1.97;;;;;;;6.37;100.00;94878.66;4989027;28;20224;-54
2023/03/01 03:17:51;;;;;;;2.57;2.17;;;;;;;6.45;100.00;94876.44;4988666;28;20195;-58
2023/03/01 03:20:19;;;;;;;2.70;2.50;;;;;;;6.44;100.00;94890.00;4988483;28;20231;-57
2023/03/01 03:22:50;;;;;;;2.00;1.80;;;;;;;6.42;100.00;94899.34;4988802;28;20220;-54
2023/03/01 03:25:19;;;;;;;3.33;2.07;;;;;;;6.49;100.00;94902.28;4992452;28;20216;-53
2023/03/01 03:27:47;;;;;;;1.63;1.53;;;;;;;6.48;100.00;94904.03;4991333;28;20198;-53
2023/03/01 03:30:16;;;;;;;2.63;1.80;;;;;;;6.40;100.00;94906.22;4991675;28;20294;-54
2023/03/01 03:32:52;;;;;;;1.63;1.53;;;;;;;6.39;100.00;94896.22;4991541;28;20202;-52
2023/03/01 03:35:32;;;;;;;1.80;1.70;;;;;;;6.39;100.00;94898.75;4989940;28;20231;-54
2023/03/01 03:38:02;;;;;;;2.47;1.87;;;;;;;6.42;100.00;94896.81;4991441;28;20319;-55
2023/03/01 03:40:34;;;;;;;2.43;2.13;;;;;;;6.46;100.00;94907.56;4991347;28;20302;-53
2023/03/01 03:42:59;;;;;;;1.73;1.60;;;;;;;6.41;100.00;94912.91;4991231;28;20199;-55
2023/03/01 03:45:25;;;;;;;1.63;1.27;;;;;;;6.38;100.00;94902.97;4991548;28;20211;-55
2023/03/01 03:48:09;;;;;;;3.13;1.50;;;;;;;6.30;100.00;94904.41;4991224;28;20195;-57
2023/03/01 03:50:35;;;;;;;1.60;1.50;;;;;;;6.36;100.00;94914.09;4991543;28;20778;-56
2023/03/01 03:53:03;;;;;;;1.70;1.60;;;;;;;6.34;100.00;94905.81;4991284;28;20323;-53
2023/03/01 03:55:30;;;;;;;1.80;1.63;;;;;;;6.33;100.00;94901.66;4990865;28;20219;-54
2023/03/01 03:58:19;;;;;;;1.83;1.70;;;;;;;6.47;100.00;94915.03;4991083;28;20187;-54
2023/03/01 04:00:45;;;;;;;1.87;1.33;;;;;;;6.42;100.00;94913.72;4991077;28;20604;-58
2023/03/01 04:03:13;;;;;;;2.60;1.40;;;;;;;6.34;100.00;94893.19;4990986;28;20687;-55
2023/03/01 04:05:39;;;;;;;1.30;1.20;;;;;;;6.40;100.00;94918.06;4990927;28;20219;-54
2023/03/01 04:08:09;;;;;;;1.87;1.70;;;;;;;6.43;100.00;94923.72;4990885;28;20245;-55
2023/03/01 04:10:44;;;;;;;1.60;1.50;;;;;;;6.15;100.00;94870.84;4991349;28;20211;-56
2023/03/01 04:13:12;;;;;;;2.40;1.30;;;;;;;6.39;100.00;94916.41;4991175;28;20187;-54
2023/03/01 04:15:38;;;;;;;1.83;1.50;;;;;;;6.47;100.00;94929.34;4990997;28;20247;-59
2023/03/01 04:18:04;;;;;;;2.27;1.43;;;;;;;6.40;100.00;94923.88;4990930;28;20316;-57
2023/03/01 04:20:34;;;;;;;2.07;1.97;;;;;;;6.47;100.00;94924.31;4996712;23;20238;-53
2023/03/01 04:23:15;;;;;;;2.40;2.13;;;;;;;6.50;100.00;94919.06;4990831;28;20188;-57
2023/03/01 04:26:01;;;;;;;3.27;1.70;;;;;;;6.56;100.00;94929.59;4991042;28;20251;-58
2023/03/01 04:28:29;;;;;;;1.70;1.60;;;;;;;6.51;100.00;94930.78;4990340;28;20211;-54
2023/03/01 04:30:56;;;;;;;3.40;1.97;;;;;;;6.50;100.00;94924.13;4991134;28;20204;-58
2023/03/01 04:33:23;;;;;;;4.77;1.50;;;;;;;6.49;100.00;94920.78;4989530;28;20234;-54
2023/03/01 04:35:50;;;;;;;2.00;1.77;;;;;;;6.63;100.00;94940.91;4989974;28;20211;-56
2023/03/01 04:38:17;;;;;;;2.03;1.60;;;;;;;6.42;100.00;94921.28;4990805;28;20287;-57
2023/03/01 04:40:43;;;;;;;1.97;1.53;;;;;;;6.45;100.00;94914.31;4990616;28;20226;-58
2023/03/01 04:43:09;;;;;;;2.33;1.97;;;;;;;6.32;100.00;94905.91;4989288;28;20188;-59
2023/03/01 04:45:35;;;;;;;2.57;1.60;;;;;;;6.27;100.00;94907.94;4990431;28;20716;-53
2023/03/01 04:48:01;;;;;;;2.20;1.83;;;;;;;6.30;100.00;94907.72;4990612;28;20245;-57
2023/03/01 04:50:27;;;;;;;1.90;1.73;;;;;;;6.48;100.00;94926.75;4990559;28;20220;-53
2023/03/01 04:52:52;;;;;;;2.77;1.97;;;;;;;6.53;100.00;94928.97;4990482;28;20281;-55
2023/03/01 04:55:19;;;;;;;1.40;1.30;;;;;;;6.47;100.00;94926.84;4990922;28;20264;-56
2023/03/01 04:57:44;;;;;;;2.53;2.00;;;;;;;6.41;100.00;94917.94;4990671;28;20199;-58
2023/03/01 05:00:22;;;;;;;4.90;2.43;;;;;;;6.33;100.00;94889.88;4990619;28;20230;-56
2023/03/01 05:02:55;;;;;;;2.40;1.43;;;;;;;6.36;100.00;94892.16;4990536;28;20210;-55
2023/03/01 05:05:29;;;;;;;3.50;1.90;;;;;;;6.40;100.00;94891.06;4990363;28;20692;-54
2023/03/01 05:08:04;;;;;;;2.10;1.60;;;;;;;6.25;100.00;94894.59;4990285;28;20289;-57
2023/03/01 05:10:32;;;;;;;1.43;1.33;;;;;;;6.43;100.00;94905.22;4990750;28;20606;-58
2023/03/01 05:12:58;;;;;;;2.53;1.83;;;;;;;6.22;100.00;94877.09;4990164;28;20207;-58
2023/03/01 05:15:29;;;;;;;1.97;1.60;;;;;;;6.40;100.00;94902.91;4990344;28;20285;-57
2023/03/01 05:17:58;;;;;;;1.80;1.40;;;;;;;6.33;100.00;94896.63;4990231;28;20195;-54
2023/03/01 05:20:24;;;;;;;1.50;1.40;;;;;;;6.28;100.00;94889.34;4990291;28;20211;-53
2023/03/01 05:22:51;;;;;;;1.57;1.33;;;;;;;6.30;100.00;94891.78;4990101;28;20225;-55
2023/03/01 05:25:17;;;;;;;2.77;1.50;;;;;;;6.37;100.00;94888.75;4990253;28;20226;-58
2023/03/01 05:27:42;;;;;;;3.13;1.67;;;;;;;6.39;100.00;94897.03;4990252;28;20675;-54
2023/03/01 05:30:13;;;;;;;1.70;1.60;;;;;;;6.44;100.00;94909.38;4990065;28;20220;-56
2023/03/01 05:32:40;;;;;;;2.93;1.73;;;;;;;6.15;100.00;94857.41;4988952;28;20281;-57
2023/03/01 05:35:06;;;;;;;1.67;1.30;;;;;;;6.51;100.00;94921.50;4990259;28;20666;-57
2023/03/01 05:37:31;;;;;;;2.73;2.00;;;;;;;6.48;100.00;94915.84;4989892;28;20202;-56
2023/03/01 05:39:57;;;;;;;1.97;1.60;;;;;;;6.40;100.00;94913.78;4990160;28;20591;-58
2023/03/01 05:42:23;;;;;;;2.90;1.40;;;;;;;6.50;100.00;94902.22;4990068;28;20183;-58
2023/03/01 05:44:48;;;;;;;3.07;1.33;;;;;;;6.84;100.00;94940.41;4989772;28;20266;-59
2023/03/01 05:47:13;;;;;;;2.43;1.50;;;;;;;6.79;100.00;94974.38;4989750;28;20191;-58
2023/03/01 05:49:39;;;;;;;1.63;1.50;;;;;;;7.10;100.00;94985.81;4989749;28;20247;-56
2023/03/01 05:52:04;;;;;;;4.60;1.50;;;;;;;7.29;100.00;95016.53;4994655;28;20285;-56
2023/03/01 05:54:30;;;;;;;3.17;1.87;;;;;;;7.24;100.00;95005.94;5009373;28;20215;-57
2023/03/01 05:56:56;;;;;;;2.23;1.70;;;;;;;7.30;100.00;95019.88;5009212;28;20210;-56
2023/03/01 05:59:21;;;;;;;2.60;2.30;;;;;;;7.33;100.00;95023.00;5050915;22;20211;-55
2023/03/01 06:01:47;;;;;;;2.37;1.90;;;;;;;7.42;100.00;95032.53;5133159;28;20269;-54
2023/03/01 06:04:12;;;;;;;2.07;1.87;;;;;;;7.36;100.00;95027.06;5114212;28;20780;-54
2023/03/01 06:06:38;;;;;;;3.03;2.20;;;;;;;7.30;100.00;95018.19;5132679;28;20182;-56
2023/03/01 06:09:07;;;;;;;1.90;1.60;;;;;;;7.06;100.00;94988.63;5132505;27;20693;-56
2023/03/01 06:11:34;;;;;;;2.73;1.97;;;;;;;7.00;100.00;94986.50;5132648;28;20194;-58
2023/03/01 06:14:00;;;;;;;9.17;2.30;;;;;;;6.91;100.00;94985.38;5132998;27;20718;-60
2023/03/01 06:16:25;;;;;;;1.83;1.57;;;;;;;6.80;100.00;94970.13;5132263;28;20250;-58
2023/03/01 06:18:50;;;;;;;1.90;1.70;;;;;;;6.79;100.00;94971.03;5103996;28;20215;-57
2023/03/01 06:21:16;;;;;;;4.50;2.13;;;;;;;6.58;100.00;94955.56;5129359;28;20190;-59
2023/03/01 06:23:41;;;;;;;4.03;1.83;;;;;;;6.49;100.00;94941.00;5132540;28;20201;-59
2023/03/01 06:26:08;;;;;;;4.23;1.90;;;;;;;6.52;100.00;94935.75;5132434;28;20710;-58
2023/03/01 06:28:33;;;;;;;5.37;2.20;;;;;;;6.49;100.00;94933.41;5132341;28;20191;-56
2023/03/01 06:30:59;;;;;;;2.17;1.97;;;;;;;6.50;100.00;94932.53;5128034;28;20651;-55
2023/03/01 06:33:25;;;;;;;3.73;2.57;;;;;;;6.35;100.00;94920.88;5123843;28;20194;-55
2023/03/01 06:35:51;;;;;;;3.17;2.20;;;;;;;6.37;100.00;94923.28;5129952;28;20249;-55
2023/03/01 06:38:18;;;;;;;3.20;2.53;;;;;;;6.31;100.00;94909.34;5128538;28;20205;-57
2023/03/01 06:40:44;;;;;;;4.53;2.30;;;;;;;6.43;100.00;94943.91;5129288;28;20228;-59
2023/03/01 06:43:10;;;;;;;2.63;2.13;;;;;;;6.47;100.00;94936.94;5130653;28;20197;-53
2023/03/01 06:45:37;;;;;;;3.57;2.17;;;;;;;6.57;100.00;94943.81;5111983;28;20214;-54
2023/03/01 06:48:06;;;;;;;4.17;2.10;;;;;;;6.68;100.00;94963.34;5131804;28;20194;-59
2023/03/01 06:50:32;;;;;;;3.67;2.03;;;;;;;6.70;100.00;94967.41;5132247;28;20210;-56
2023/03/01 06:52:58;;;;;;;3.10;2.20;;;;;;;6.52;100.00;94948.38;5132075;28;20201;-56
2023/03/01 06:55:23;;;;;;;4.33;2.00;;;;;;;6.47;100.00;94955.44;5132097;28;20206;-59
2023/03/01 06:57:56;;;;;;;3.13;1.57;;;;;;;6.45;100.00;94959.75;5131299;27;20592;-58
2023/03/01 07:00:23;;;;;;;4.40;1.93;;;;;;;6.44;100.00;94958.16;5132347;28;20729;-55
2023/03/01 07:02:48;;;;;;;1.70;1.60;;;;;;;6.34;100.00;94959.63;5132038;28;20193;-54
2023/03/01 07:05:14;;;;;;;3.87;2.20;;;;;;;6.45;100.00;94951.38;5131910;28;20636;-57
2023/03/01 07:07:39;;;;;;;8.40;2.10;;;;;;;6.36;100.00;94957.03;5132020;28;20185;-55
2023/03/01 07:10:05;;;;;;;2.73;1.93;;;;;;;6.45;100.00;94946.31;5131924;28;20226;-55
2023/03/01 07:12:31;;;;;;;4.83;2.23;;;;;;;6.55;100.00;94957.44;5131883;28;20186;-54
2023/03/01 07:14:56;;;;;;;3.07;1.43;;;;;;;6.50;100.00;94965.34;5131692;28;20266;-55
2023/03/01 07:17:22;;;;;;;4.20;1.83;;;;;;;6.53;100.00;94954.22;5131581;28;20265;-53
2023/03/01 07:19:47;;;;;;;4.97;1.63;;;;;;;6.61;100.00;94965.47;5132022;28;20582;-55
2023/03/01 07:22:13;;;;;;;2.40;1.50;;;;;;;6.79;100.00;94954.16;5113230;28;20285;-54
2023/03/01 07:24:38;;;;;;;2.13;1.40;;;;;;;6.77;100.00;94993.06;5132075;28;20211;-54
2023/03/01 07:27:04;;;;;;;2.33;1.40;;;;;;;6.61;100.00;94964.63;5131859;28;20300;-55
2023/03/01 07:29:30;;;;;;;5.50;1.67;;;;;;;6.79;100.00;94960.91;5131434;28;20213;-58
2023/03/01 07:31:55;;;;;;;2.00;1.50;;;;;;;6.74;100.00;94976.41;5113320;28;20711;-54
2023/03/01 07:34:20;;;;;;;3.53;1.47;;;;;;;7.04;100.00;94982.88;5131492;28;20623;-54
2023/03/01 07:36:46;;;;;;;3.43;1.97;;;;;;;7.10;100.00;94983.28;5131360;28;20217;-55
2023/03/01 07:39:12;;;;;;;5.20;2.00;;;;;;;7.01;100.00;95001.56;5131303;28;20218;-56
2023/03/01 07:41:37;;;;;;;5.37;1.93;;;;;;;7.12;100.00;94984.00;5131331;28;20232;-54
2023/03/01 07:44:03;;;;;;;2.73;1.80;;;;;;;7.24;100.00;95007.66;5131476;28;20698;-54
2023/03/01 07:46:28;;;;;;;5.43;1.73;;;;;;;7.18;100.00;95019.00;5131410;28;20192;-59
2023/03/01 07:48:54;;;;;;;3.20;1.43;;;;;;;7.20;100.00;95027.28;5131569;28;20210;-58
2023/03/01 07:51:19;;;;;;;3.17;1.83;;;;;;;7.27;100.00;95023.41;5113276;28;20206;-63
2023/03/01 07:53:48;;;;;;;3.57;1.73;;;;;;;7.24;100.00;94995.00;5112908;28;20625;-60
2023/03/01 07:56:17;;;;;;;3.77;1.90;;;;;;;7.32;100.00;94980.13;5131394;28;20207;-54
2023/03/01 07:58:43;;;;;;;4.67;2.00;;;;;;;7.34;100.00;95036.47;5131207;28;20293;-54
2023/03/01 08:01:11;;;;;;;1.97;1.43;;;;;;;7.40;100.00;95038.59;5131331;28;20194;-58
2023/03/01 08:03:37;;;;;;;2.53;1.63;;;;;;;7.49;100.00;95015.25;5131129;28;20191;-56
2023/03/01 08:06:06;;;;;;;1.30;1.10;;;;;;;7.52;100.00;95037.78;5131161;28;20198;-56
2023/03/01 08:08:32;;;;;;;3.77;2.13;;;;;;;7.42;100.00;95012.31;5131352;28;20187;-54
2023/03/01 08:10:59;;;;;;;2.57;1.37;;;;;;;7.33;100.00;95009.59;5134751;27;20194;-54
2023/03/01 08:13:25;;;;;;;4.40;1.43;;;;;;;7.38;100.00;95015.13;5134488;28;20186;-54
2023/03/01 08:15:51;;;;;;;1.97;1.47;;;;;;;7.24;100.00;95012.72;5116298;28;20199;-54
2023/03/01 08:18:17;;;;;;;3.70;1.80;;;;;;;7.22;100.00;95001.88;5134646;28;20194;-54
2023/03/01 08:20:43;;;;;;;2.43;1.80;;;;;;;7.26;100.00;95008.34;5134339;28;20285;-56
2023/03/01 08:23:09;;;;;;;2.83;2.00;;;;;;;7.18;100.00;95008.06;5134662;28;20283;-54
2023/03/01 08:25:34;;;;;;;2.13;1.80;;;;;;;7.22;100.00;95005.22;5134446;28;20629;-55
2023/03/01 08:28:00;;;;;;;3.93;1.87;;;;;;;7.28;100.00;94999.78;5134718;28;20274;-54
2023/03/01 08:30:25;;;;;;;2.50;1.80;;;;;;;7.37;100.00;95016.06;5134387;28;20282;-56
2023/03/01 08:32:51;;;;;;;2.17;1.67;;;;;;;7.44;100.00;95034.97;5134295;28;20183;-56
2023/03/01 08:35:17;;;;;;;2.97;1.97;;;;;;;7.45;100.00;95017.16;5134193;28;20214;-54
2023/03/01 08:37:43;;;;;;;2.90;2.00;;;;;;;7.51;100.00;95028.59;5134367;28;20674;-55
2023/03/01 08:40:09;;;;;;;5.83;2.10;;;;;;;7.58;100.00;95057.63;5134275;28;20594;-57
2023/03/01 08:42:36;;;;;;;4.33;2.47;;;;;;;7.53;100.00;95054.59;5133971;28;20214;-56
2023/03/01 08:45:05;;;;;;;3.70;2.37;;;;;;;7.55;100.00;95068.75;5134093;28;20263;-54
2023/03/01 08:47:31;;;;;;;1.67;1.57;;;;;;;7.64;100.00;95072.38;5133911;28;20187;-54
2023/03/01 08:49:56;;;;;;;5.40;2.17;;;;;;;7.52;100.00;95071.50;5133802;28;20642;-53
2023/03/01 08:52:22;;;;;;;3.17;2.77;;;;;;;8.19;100.00;94902.34;5134068;28;20206;-55
2023/03/01 08:54:48;;;;;;;3.00;2.40;;;;;;;7.88;100.00;95100.31;5134477;28;20214;-57
2023/03/01 08:57:21;;;;;;;3.87;2.50;;;;;;;7.79;100.00;95075.63;5134119;28;20214;-56
2023/03/01 08:59:55;;;;;;;3.20;2.10;;;;;;;7.68;100.00;95058.63;5134542;28;20626;-59
2023/03/01 09:02:21;;;;;;;2.67;1.67;;;;;;;7.68;100.00;95060.34;5134081;28;20194;-56
2023/03/01 09:04:47;;;;;;;4.50;2.93;;;;;;;7.62;100.00;95014.31;5134014;28;20206;-58
2023/03/01 09:07:12;;;;;;;7.50;3.83;;;;;;;7.77;100.00;95052.13;5133979;28;20564;-58
2023/03/01 09:09:38;;;;;;;5.60;3.10;;;;;;;7.81;100.00;95043.44;5115476;28;20271;-57
2023/03/01 09:12:04;;;;;;;5.17;2.90;;;;;;;7.96;100.00;95043.19;5134289;28;20175;-57
2023/03/01 09:14:29;;;;;;;2.60;1.60;;;;;;;8.00;100.00;95067.38;5134212;28;20202;-54
2023/03/01 09:16:55;;;;;;;3.50;2.03;;;;;;;7.98;100.00;95069.22;5133640;28;20691;-53
2023/03/01 09:19:20;;;;;;;3.70;1.83;;;;;;;7.87;100.00;95070.84;5115461;28;20224;-57
2023/03/01 09:21:52;;;;;;;1.97;1.23;;;;;;;7.87;100.00;95064.06;5133273;27;20202;-58
2023/03/01 09:24:19;;;;;;;1.47;1.37;;;;;;;7.95;100.00;95026.41;5133676;28;20203;-56
2023/03/01 09:26:46;;;;;;;1.37;1.27;;;;;;;7.96;100.00;95039.88;5133685;28;20693;-58
2023/03/01 09:29:12;;;;;;;1.20;0.90;;;;;;;7.69;100.00;95034.94;5133608;28;20203;-59
2023/03/01 09:31:38;;;;;;;2.27;1.13;;;;;;;7.72;100.00;95033.91;5133500;28;20187;-58
2023/03/01 09:34:03;;;;;;;2.70;1.37;;;;;;;7.82;100.00;95002.03;5114866;28;20207;-56
2023/03/01 09:36:29;;;;;;;1.00;0.90;;;;;;;7.78;100.00;95033.53;5133331;28;20240;-54
2023/03/01 09:38:54;;;;;;;4.77;1.50;;;;;;;7.86;100.00;95021.94;5133569;28;20206;-54
2023/03/01 09:41:54;;;;;;;3.27;1.40;;;;;;;7.91;100.00;94997.16;5133523;28;20186;-53
2023/03/01 09:44:47;;;;;;;2.30;1.20;;;;;;;7.93;100.00;95018.09;5133587;28;20210;-55
2023/03/01 09:47:26;;;;;;;1.20;1.10;;;;;;;7.62;100.00;94988.19;5133351;28;20186;-57
2023/03/01 09:50:16;;;;;;;1.70;1.10;;;;;;;7.85;100.00;94995.03;5133289;28;20206;-55
2023/03/01 09:52:41;;;;;;;2.17;1.40;;;;;;;7.92;100.00;95003.81;5114835;28;20187;-58
2023/03/01 09:55:17;;;;;;;2.40;1.57;;;;;;;7.87;100.00;95008.41;5133146;28;20195;-58
2023/03/01 09:57:53;;;;;;;2.33;1.33;;;;;;;7.93;100.00;94977.59;5132965;28;20182;-56
2023/03/01 10:00:41;;;;;;;1.47;1.37;;;;;;;8.07;100.00;95020.50;5133335;28;20199;-58
2023/03/01 10:03:22;;;;;;;2.57;1.50;;;;;;;8.12;100.00;95010.84;5133353;28;20190;-54
2023/03/01 10:06:00;;;;;;;4.00;1.50;;;;;;;8.14;100.00;95041.13;5114595;28;20186;-55
2023/03/01 10:08:30;;;;;;;1.33;1.20;;;;;;;8.12;100.00;95018.44;5133127;28;20269;-55
2023/03/01 10:10:57;;;;;;;2.27;1.47;;;;;;;8.08;100.00;95022.09;5132872;28;20201;-55
2023/03/01 10:13:57;;;;;;;1.27;1.00;;;;;;;7.98;100.00;95023.63;5132123;28;20175;-54
2023/03/01 10:16:34;;;;;;;1.33;1.00;;;;;;;8.01;100.00;95013.31;5132752;28;20255;-57
2023/03/01 10:19:02;;;;;;;1.90;1.00;;;;;;;7.90;100.00;95008.16;5132663;28;20607;-56
2023/03/01 10:21:31;;;;;;;3.07;1.17;;;;;;;7.85;100.00;94989.97;5132606;28;20663;-55
2023/03/01 10:24:08;;;;;;;1.57;1.20;;;;;;;7.95;100.00;94980.84;5132658;28;20199;-54
2023/03/01 10:26:57;;;;;;;1.80;1.27;;;;;;;8.09;100.00;94993.34;5114189;28;20193;-55
2023/03/01 10:29:39;;;;;;;3.13;1.00;;;;;;;7.94;100.00;94981.72;5132848;28;20202;-56
2023/03/01 10:32:08;;;;;;;1.40;1.23;;;;;;;8.23;100.00;94985.59;5113626;27;20182;-54
2023/03/01 10:34:35;;;;;;;1.33;1.23;;;;;;;8.21;100.00;95022.88;5131844;28;20238;-54
2023/03/01 10:37:18;;;;;;;2.00;1.17;;;;;;;8.18;100.00;94997.75;5132272;28;20666;-53
2023/03/01 10:40:08;;;;;;;1.93;1.50;;;;;;;8.16;100.00;95008.94;5132260;28;20222;-53
2023/03/01 10:42:49;;;;;;;3.40;1.23;;;;;;;8.29;100.00;94995.31;5132298;28;20187;-55
2023/03/01 10:45:43;;;;;;;5.90;2.10;;;;;;;8.48;100.00;95015.09;5132494;28;20229;-58
2023/03/01 10:48:14;;;;;;;5.70;2.00;;;;;;;8.35;100.00;95005.03;5110357;28;20230;-58
2023/03/01 10:51:04;;;;;;;2.23;1.30;;;;;;;8.41;100.00;94999.53;5132134;28;20238;-58
2023/03/01 10:53:42;;;;;;;1.63;1.40;;;;;;;8.61;100.00;95035.28;5132270;28;20247;-55
2023/03/01 10:56:13;;;;;;;2.80;1.43;;;;;;;8.88;100.00;95035.88;5132139;28;20261;-56
2023/03/01 10:58:41;;;;;;;3.27;1.53;;;;;;;9.26;100.00;94934.97;5132219;28;20266;-56
2023/03/01 11:01:15;;;;;;;1.50;1.40;;;;;;;9.91;100.00;94937.56;5132060;28;20259;-56
2023/03/01 11:03:41;;;;;;;2.23;1.83;;;;;;;10.42;100.00;94989.41;5131880;28;20704;-54
2023/03/01 11:06:22;;;;;;;2.33;1.70;;;;;;;10.69;100.00;94915.22;5131966;28;20183;-55
2023/03/01 11:08:50;;;;;;;2.17;1.70;;;;;;;10.86;100.00;95040.09;5113697;28;20214;-54
2023/03/01 11:11:33;;;;;;;2.17;1.60;;;;;;;10.71;100.00;95139.66;5131750;28;20694;-58
2023/03/01 11:14:23;;;;;;;3.90;1.93;;;;;;;10.62;100.00;95216.66;5113723;22;21334;-59
2023/03/01 11:16:59;;;;;;;2.07;1.47;;;;;;;9.98;100.00;95124.88;5090656;28;20219;-59
2023/03/01 11:19:25;;;;;;;2.33;1.80;;;;;;;9.73;100.00;95089.56;5090970;28;20268;-59
2023/03/01 11:22:12;;;;;;;2.27;2.07;;;;;;;9.99;100.00;95092.69;5090986;28;20196;-58
2023/03/01 11:24:53;;;;;;;4.67;2.00;;;;;;;9.83;100.00;95104.91;5090632;28;20207;-55
2023/03/01 11:27:26;;;;;;;2.03;1.67;;;;;;;9.64;100.00;95087.69;5090770;28;20215;-55
2023/03/01 11:30:13;;;;;;;3.23;2.37;;;;;;;9.43;100.00;95030.94;5091032;28;20204;-55
2023/03/01 11:32:45;;;;;;;5.20;2.10;;;;;;;9.32;100.00;95023.28;5090592;28;20282;-54
2023/03/01 11:35:19;;;;;;;1.70;1.60;;;;;;;9.15;100.00;95016.13;5090433;28;20269;-57
2023/03/01 11:38:02;;;;;;;3.13;2.00;;;;;;;9.11;100.00;95019.81;5090870;28;20276;-55
2023/03/01 11:40:37;;;;;;;2.53;1.93;;;;;;;9.15;100.00;95008.53;5090453;28;20211;-54
2023/03/01 11:43:18;;;;;;;1.93;1.73;;;;;;;9.19;100.00;95027.66;5090753;28;20183;-55
2023/03/01 11:46:20;;;;;;;2.83;2.20;;;;;;;9.09;100.00;94989.47;5093852;28;20306;-56